sensor_id;sensor_type;location;lat;lon;timestamp;P1;durP1;ratioP1;P2;durP2;ratioP2
52414;SDS011;38340;52.964;6.086;2022-10-23T00:03:50;24.35;;;12.18;;
52414;SDS011;38340;52.964;6.086;2022-10-23T00:06:18;23.15;;;11.60;;
52414;SDS011;38340;52.964;6.086;2022-10-23T00:08:45;16.73;;;11.82;;
52414;SDS011;38340;52.964;6.086;2022-10-23T00:11:14;21.42;;;11.85;;
52414;SDS011;38340;52.964;6.086;2022-10-23T00:13:42;20.58;;;12.32;;
52414;SDS011;38340;52.964;6.086;2022-10-23T00:16:08;21.73;;;12.93;;
52414;SDS011;38340;52.964;6.086;2022-10-23T00:18:34;19.00;;;11.40;;
52414;SDS011;38340;52.964;6.086;2022-10-23T00:21:01;23.02;;;11.93;;
52414;SDS011;38340;52.964;6.086;2022-10-23T00:23:27;18.92;;;12.18;;
52414;SDS011;38340;52.964;6.086;2022-10-23T00:25:53;21.45;;;12.60;;
52414;SDS011;38340;52.964;6.086;2022-10-23T00:28:19;19.88;;;12.70;;
52414;SDS011;38340;52.964;6.086;2022-10-23T00:30:44;23.67;;;13.30;;
52414;SDS011;38340;52.964;6.086;2022-10-23T00:33:10;22.25;;;13.40;;
52414;SDS011;38340;52.964;6.086;2022-10-23T00:35:39;20.15;;;13.02;;
52414;SDS011;38340;52.964;6.086;2022-10-23T00:38:06;21.17;;;12.60;;
52414;SDS011;38340;52.964;6.086;2022-10-23T00:40:33;16.73;;;11.95;;
52414;SDS011;38340;52.964;6.086;2022-10-23T00:43:00;22.13;;;13.35;;
52414;SDS011;38340;52.964;6.086;2022-10-23T00:45:26;22.58;;;13.98;;
52414;SDS011;38340;52.964;6.086;2022-10-23T00:47:55;20.20;;;13.40;;
52414;SDS011;38340;52.964;6.086;2022-10-23T00:50:22;27.23;;;14.52;;
52414;SDS011;38340;52.964;6.086;2022-10-23T00:52:49;20.52;;;13.25;;
52414;SDS011;38340;52.964;6.086;2022-10-23T00:55:17;26.40;;;14.63;;
52414;SDS011;38340;52.964;6.086;2022-10-23T00:57:44;22.58;;;14.18;;
52414;SDS011;38340;52.964;6.086;2022-10-23T01:00:19;20.02;;;13.95;;
52414;SDS011;38340;52.964;6.086;2022-10-23T01:02:50;23.90;;;14.93;;
52414;SDS011;38340;52.964;6.086;2022-10-23T01:05:17;19.17;;;14.27;;
52414;SDS011;38340;52.964;6.086;2022-10-23T01:07:52;24.80;;;14.93;;
52414;SDS011;38340;52.964;6.086;2022-10-23T01:10:25;21.75;;;14.88;;
52414;SDS011;38340;52.964;6.086;2022-10-23T01:13:16;22.77;;;15.20;;
52414;SDS011;38340;52.964;6.086;2022-10-23T01:15:58;20.67;;;14.13;;
52414;SDS011;38340;52.964;6.086;2022-10-23T01:18:44;27.98;;;15.43;;
52414;SDS011;38340;52.964;6.086;2022-10-23T01:24:26;24.83;;;14.82;;
52414;SDS011;38340;52.964;6.086;2022-10-23T01:29:58;21.20;;;13.52;;
52414;SDS011;38340;52.964;6.086;2022-10-23T01:32:36;24.42;;;14.43;;
52414;SDS011;38340;52.964;6.086;2022-10-23T01:35:15;26.17;;;15.05;;
52414;SDS011;38340;52.964;6.086;2022-10-23T01:37:54;21.02;;;14.00;;
52414;SDS011;38340;52.964;6.086;2022-10-23T01:40:23;21.15;;;14.15;;
52414;SDS011;38340;52.964;6.086;2022-10-23T01:42:55;18.80;;;13.05;;
52414;SDS011;38340;52.964;6.086;2022-10-23T01:45:32;23.75;;;12.73;;
52414;SDS011;38340;52.964;6.086;2022-10-23T01:48:08;21.05;;;14.02;;
52414;SDS011;38340;52.964;6.086;2022-10-23T01:50:39;19.35;;;14.55;;
52414;SDS011;38340;52.964;6.086;2022-10-23T01:53:06;42.58;;;15.60;;
52414;SDS011;38340;52.964;6.086;2022-10-23T01:55:32;26.35;;;14.68;;
52414;SDS011;38340;52.964;6.086;2022-10-23T01:58:01;29.92;;;15.57;;
52414;SDS011;38340;52.964;6.086;2022-10-23T02:00:28;23.92;;;14.65;;
52414;SDS011;38340;52.964;6.086;2022-10-23T02:02:54;27.02;;;15.18;;
52414;SDS011;38340;52.964;6.086;2022-10-23T02:05:23;22.15;;;14.90;;
52414;SDS011;38340;52.964;6.086;2022-10-23T02:07:50;17.90;;;12.50;;
52414;SDS011;38340;52.964;6.086;2022-10-23T02:10:17;20.63;;;13.40;;
52414;SDS011;38340;52.964;6.086;2022-10-23T02:12:53;16.15;;;11.88;;
52414;SDS011;38340;52.964;6.086;2022-10-23T02:15:36;14.57;;;11.57;;
52414;SDS011;38340;52.964;6.086;2022-10-23T02:18:53;35.90;;;13.77;;
52414;SDS011;38340;52.964;6.086;2022-10-23T02:21:09;16.48;;;11.73;;
52414;SDS011;38340;52.964;6.086;2022-10-23T02:23:39;65.63;;;15.25;;
52414;SDS011;38340;52.964;6.086;2022-10-23T02:26:14;39.20;;;12.95;;
52414;SDS011;38340;52.964;6.086;2022-10-23T02:28:52;34.78;;;13.95;;
52414;SDS011;38340;52.964;6.086;2022-10-23T02:31:26;19.92;;;11.85;;
52414;SDS011;38340;52.964;6.086;2022-10-23T02:33:51;20.70;;;13.52;;
52414;SDS011;38340;52.964;6.086;2022-10-23T02:36:17;20.33;;;12.93;;
52414;SDS011;38340;52.964;6.086;2022-10-23T02:38:44;20.75;;;12.50;;
52414;SDS011;38340;52.964;6.086;2022-10-23T02:55:13;18.40;;;12.15;;
52414;SDS011;38340;52.964;6.086;2022-10-23T03:00:38;15.38;;;11.90;;
52414;SDS011;38340;52.964;6.086;2022-10-23T03:03:12;23.25;;;13.43;;
52414;SDS011;38340;52.964;6.086;2022-10-23T03:05:41;21.83;;;13.07;;
52414;SDS011;38340;52.964;6.086;2022-10-23T03:08:09;22.95;;;14.45;;
52414;SDS011;38340;52.964;6.086;2022-10-23T03:10:36;23.98;;;14.93;;
52414;SDS011;38340;52.964;6.086;2022-10-23T03:13:02;21.58;;;14.68;;
52414;SDS011;38340;52.964;6.086;2022-10-23T03:15:28;22.90;;;14.90;;
52414;SDS011;38340;52.964;6.086;2022-10-23T03:17:54;22.95;;;14.93;;
52414;SDS011;38340;52.964;6.086;2022-10-23T03:20:19;23.83;;;15.13;;
52414;SDS011;38340;52.964;6.086;2022-10-23T03:22:45;21.95;;;15.20;;
52414;SDS011;38340;52.964;6.086;2022-10-23T03:25:11;22.08;;;15.77;;
52414;SDS011;38340;52.964;6.086;2022-10-23T03:27:36;20.77;;;14.25;;
52414;SDS011;38340;52.964;6.086;2022-10-23T03:30:02;20.95;;;15.65;;
52414;SDS011;38340;52.964;6.086;2022-10-23T03:32:29;21.27;;;15.77;;
52414;SDS011;38340;52.964;6.086;2022-10-23T03:34:55;24.58;;;16.08;;
52414;SDS011;38340;52.964;6.086;2022-10-23T03:37:20;23.15;;;15.70;;
52414;SDS011;38340;52.964;6.086;2022-10-23T03:39:46;20.38;;;14.75;;
52414;SDS011;38340;52.964;6.086;2022-10-23T03:42:12;25.23;;;16.15;;
52414;SDS011;38340;52.964;6.086;2022-10-23T03:44:38;26.33;;;16.63;;
52414;SDS011;38340;52.964;6.086;2022-10-23T03:47:03;21.90;;;15.25;;
52414;SDS011;38340;52.964;6.086;2022-10-23T03:49:29;21.80;;;15.40;;
52414;SDS011;38340;52.964;6.086;2022-10-23T03:51:55;25.08;;;15.27;;
52414;SDS011;38340;52.964;6.086;2022-10-23T03:54:25;21.08;;;15.30;;
52414;SDS011;38340;52.964;6.086;2022-10-23T03:56:52;23.38;;;15.40;;
52414;SDS011;38340;52.964;6.086;2022-10-23T03:59:19;20.90;;;14.25;;
52414;SDS011;38340;52.964;6.086;2022-10-23T04:01:45;23.58;;;15.40;;
52414;SDS011;38340;52.964;6.086;2022-10-23T04:04:11;24.52;;;15.55;;
52414;SDS011;38340;52.964;6.086;2022-10-23T04:06:37;22.23;;;15.13;;
52414;SDS011;38340;52.964;6.086;2022-10-23T04:09:03;25.75;;;14.80;;
52414;SDS011;38340;52.964;6.086;2022-10-23T04:11:30;22.70;;;15.27;;
52414;SDS011;38340;52.964;6.086;2022-10-23T04:13:56;22.55;;;15.70;;
52414;SDS011;38340;52.964;6.086;2022-10-23T04:16:22;70.82;;;20.27;;
52414;SDS011;38340;52.964;6.086;2022-10-23T04:18:48;25.60;;;16.95;;
52414;SDS011;38340;52.964;6.086;2022-10-23T04:21:14;23.33;;;15.75;;
52414;SDS011;38340;52.964;6.086;2022-10-23T04:23:40;25.90;;;17.35;;
52414;SDS011;38340;52.964;6.086;2022-10-23T04:26:06;31.83;;;17.27;;
52414;SDS011;38340;52.964;6.086;2022-10-23T04:28:32;25.80;;;17.17;;
52414;SDS011;38340;52.964;6.086;2022-10-23T04:30:58;26.35;;;17.98;;
52414;SDS011;38340;52.964;6.086;2022-10-23T04:33:23;21.35;;;15.98;;
52414;SDS011;38340;52.964;6.086;2022-10-23T04:35:50;21.08;;;15.95;;
52414;SDS011;38340;52.964;6.086;2022-10-23T04:38:15;28.50;;;17.65;;
52414;SDS011;38340;52.964;6.086;2022-10-23T04:40:41;25.50;;;16.42;;
52414;SDS011;38340;52.964;6.086;2022-10-23T04:43:07;28.15;;;18.05;;
52414;SDS011;38340;52.964;6.086;2022-10-23T04:45:32;23.58;;;17.38;;
52414;SDS011;38340;52.964;6.086;2022-10-23T04:47:58;23.90;;;16.70;;
52414;SDS011;38340;52.964;6.086;2022-10-23T04:50:24;24.67;;;17.23;;
52414;SDS011;38340;52.964;6.086;2022-10-23T04:52:52;22.38;;;16.75;;
52414;SDS011;38340;52.964;6.086;2022-10-23T04:55:22;23.10;;;16.55;;
52414;SDS011;38340;52.964;6.086;2022-10-23T04:57:49;27.25;;;16.25;;
52414;SDS011;38340;52.964;6.086;2022-10-23T05:00:16;20.30;;;15.63;;
52414;SDS011;38340;52.964;6.086;2022-10-23T05:02:42;28.52;;;16.90;;
52414;SDS011;38340;52.964;6.086;2022-10-23T05:05:08;32.10;;;18.92;;
52414;SDS011;38340;52.964;6.086;2022-10-23T05:07:35;28.60;;;19.20;;
52414;SDS011;38340;52.964;6.086;2022-10-23T05:10:01;29.80;;;18.75;;
52414;SDS011;38340;52.964;6.086;2022-10-23T05:12:27;34.50;;;20.70;;
52414;SDS011;38340;52.964;6.086;2022-10-23T05:14:53;29.77;;;19.63;;
52414;SDS011;38340;52.964;6.086;2022-10-23T05:17:23;27.55;;;19.58;;
52414;SDS011;38340;52.964;6.086;2022-10-23T05:19:58;31.42;;;20.58;;
52414;SDS011;38340;52.964;6.086;2022-10-23T05:22:29;26.52;;;18.55;;
52414;SDS011;38340;52.964;6.086;2022-10-23T05:24:57;34.72;;;19.65;;
52414;SDS011;38340;52.964;6.086;2022-10-23T05:27:25;31.35;;;19.83;;
52414;SDS011;38340;52.964;6.086;2022-10-23T05:29:51;31.23;;;19.50;;
52414;SDS011;38340;52.964;6.086;2022-10-23T05:32:17;29.50;;;20.30;;
52414;SDS011;38340;52.964;6.086;2022-10-23T05:34:43;32.90;;;21.02;;
52414;SDS011;38340;52.964;6.086;2022-10-23T05:37:09;33.42;;;20.67;;
52414;SDS011;38340;52.964;6.086;2022-10-23T05:39:37;31.88;;;21.05;;
52414;SDS011;38340;52.964;6.086;2022-10-23T05:42:03;36.10;;;21.50;;
52414;SDS011;38340;52.964;6.086;2022-10-23T05:44:28;31.08;;;21.02;;
52414;SDS011;38340;52.964;6.086;2022-10-23T05:46:54;31.63;;;20.83;;
52414;SDS011;38340;52.964;6.086;2022-10-23T05:49:20;134.73;;;29.75;;
52414;SDS011;38340;52.964;6.086;2022-10-23T05:51:47;32.63;;;19.92;;
52414;SDS011;38340;52.964;6.086;2022-10-23T05:54:13;36.00;;;21.83;;
52414;SDS011;38340;52.964;6.086;2022-10-23T05:56:39;122.10;;;27.02;;
52414;SDS011;38340;52.964;6.086;2022-10-23T05:59:07;75.57;;;24.88;;
52414;SDS011;38340;52.964;6.086;2022-10-23T06:01:34;32.85;;;21.40;;
52414;SDS011;38340;52.964;6.086;2022-10-23T06:04:00;38.03;;;20.25;;
52414;SDS011;38340;52.964;6.086;2022-10-23T06:06:27;30.30;;;20.33;;
52414;SDS011;38340;52.964;6.086;2022-10-23T06:08:53;75.85;;;24.75;;
52414;SDS011;38340;52.964;6.086;2022-10-23T06:11:18;35.83;;;21.02;;
52414;SDS011;38340;52.964;6.086;2022-10-23T06:13:45;31.15;;;20.98;;
52414;SDS011;38340;52.964;6.086;2022-10-23T06:16:16;31.73;;;20.63;;
52414;SDS011;38340;52.964;6.086;2022-10-23T06:18:44;35.90;;;21.08;;
52414;SDS011;38340;52.964;6.086;2022-10-23T06:21:10;34.47;;;20.38;;
52414;SDS011;38340;52.964;6.086;2022-10-23T06:23:37;34.88;;;21.40;;
52414;SDS011;38340;52.964;6.086;2022-10-23T06:26:04;40.00;;;22.08;;
52414;SDS011;38340;52.964;6.086;2022-10-23T06:28:30;33.65;;;20.95;;
52414;SDS011;38340;52.964;6.086;2022-10-23T06:30:56;47.15;;;22.48;;
52414;SDS011;38340;52.964;6.086;2022-10-23T06:33:22;119.38;;;30.27;;
52414;SDS011;38340;52.964;6.086;2022-10-23T06:35:47;34.47;;;20.95;;
52414;SDS011;38340;52.964;6.086;2022-10-23T06:38:13;35.00;;;22.35;;
52414;SDS011;38340;52.964;6.086;2022-10-23T06:40:39;30.85;;;22.08;;
52414;SDS011;38340;52.964;6.086;2022-10-23T06:43:05;107.22;;;28.17;;
52414;SDS011;38340;52.964;6.086;2022-10-23T06:45:32;35.70;;;21.38;;
52414;SDS011;38340;52.964;6.086;2022-10-23T06:47:59;34.60;;;21.50;;
52414;SDS011;38340;52.964;6.086;2022-10-23T06:50:25;357.20;;;63.60;;
52414;SDS011;38340;52.964;6.086;2022-10-23T06:52:52;35.20;;;21.70;;
52414;SDS011;38340;52.964;6.086;2022-10-23T06:55:18;34.17;;;22.17;;
52414;SDS011;38340;52.964;6.086;2022-10-23T06:57:44;33.78;;;21.45;;
52414;SDS011;38340;52.964;6.086;2022-10-23T07:00:10;34.13;;;21.45;;
52414;SDS011;38340;52.964;6.086;2022-10-23T07:02:36;83.40;;;25.85;;
52414;SDS011;38340;52.964;6.086;2022-10-23T07:05:02;33.55;;;20.90;;
52414;SDS011;38340;52.964;6.086;2022-10-23T07:07:28;36.17;;;21.88;;
52414;SDS011;38340;52.964;6.086;2022-10-23T07:09:55;36.17;;;20.90;;
52414;SDS011;38340;52.964;6.086;2022-10-23T07:12:20;34.83;;;21.08;;
52414;SDS011;38340;52.964;6.086;2022-10-23T07:14:46;33.67;;;21.63;;
52414;SDS011;38340;52.964;6.086;2022-10-23T07:17:12;33.58;;;19.73;;
52414;SDS011;38340;52.964;6.086;2022-10-23T07:19:38;34.13;;;20.80;;
52414;SDS011;38340;52.964;6.086;2022-10-23T07:22:03;42.53;;;20.92;;
52414;SDS011;38340;52.964;6.086;2022-10-23T07:24:29;31.83;;;20.42;;
52414;SDS011;38340;52.964;6.086;2022-10-23T07:26:56;31.40;;;18.92;;
52414;SDS011;38340;52.964;6.086;2022-10-23T07:29:22;28.83;;;19.90;;
52414;SDS011;38340;52.964;6.086;2022-10-23T07:31:48;35.30;;;19.75;;
52414;SDS011;38340;52.964;6.086;2022-10-23T07:34:14;36.85;;;20.55;;
52414;SDS011;38340;52.964;6.086;2022-10-23T07:36:39;42.13;;;21.65;;
52414;SDS011;38340;52.964;6.086;2022-10-23T07:39:05;49.88;;;21.98;;
52414;SDS011;38340;52.964;6.086;2022-10-23T07:41:31;66.45;;;24.88;;
52414;SDS011;38340;52.964;6.086;2022-10-23T07:43:57;541.83;;;77.80;;
52414;SDS011;38340;52.964;6.086;2022-10-23T07:46:22;106.40;;;28.42;;
52414;SDS011;38340;52.964;6.086;2022-10-23T07:48:48;93.93;;;26.70;;
52414;SDS011;38340;52.964;6.086;2022-10-23T07:51:14;85.95;;;24.65;;
52414;SDS011;38340;52.964;6.086;2022-10-23T07:53:40;29.70;;;19.83;;
52414;SDS011;38340;52.964;6.086;2022-10-23T07:56:14;26.77;;;19.35;;
52414;SDS011;38340;52.964;6.086;2022-10-23T07:58:44;31.52;;;19.17;;
52414;SDS011;38340;52.964;6.086;2022-10-23T08:01:17;36.55;;;18.92;;
52414;SDS011;38340;52.964;6.086;2022-10-23T08:03:46;27.60;;;18.52;;
52414;SDS011;38340;52.964;6.086;2022-10-23T08:06:12;33.00;;;19.08;;
52414;SDS011;38340;52.964;6.086;2022-10-23T08:08:38;25.00;;;18.13;;
52414;SDS011;38340;52.964;6.086;2022-10-23T08:11:04;27.77;;;17.73;;
52414;SDS011;38340;52.964;6.086;2022-10-23T08:13:30;27.25;;;18.08;;
52414;SDS011;38340;52.964;6.086;2022-10-23T08:15:56;29.67;;;18.23;;
52414;SDS011;38340;52.964;6.086;2022-10-23T08:18:22;27.27;;;16.73;;
52414;SDS011;38340;52.964;6.086;2022-10-23T08:20:48;29.67;;;17.63;;
52414;SDS011;38340;52.964;6.086;2022-10-23T08:23:16;28.63;;;16.80;;
52414;SDS011;38340;52.964;6.086;2022-10-23T08:25:43;28.80;;;17.13;;
52414;SDS011;38340;52.964;6.086;2022-10-23T08:28:09;25.52;;;16.48;;
52414;SDS011;38340;52.964;6.086;2022-10-23T08:30:36;26.67;;;17.55;;
52414;SDS011;38340;52.964;6.086;2022-10-23T08:33:02;27.58;;;17.33;;
52414;SDS011;38340;52.964;6.086;2022-10-23T08:35:28;26.65;;;16.98;;
52414;SDS011;38340;52.964;6.086;2022-10-23T08:37:54;28.48;;;17.00;;
52414;SDS011;38340;52.964;6.086;2022-10-23T08:40:23;24.35;;;16.52;;
52414;SDS011;38340;52.964;6.086;2022-10-23T08:42:55;25.77;;;15.70;;
52414;SDS011;38340;52.964;6.086;2022-10-23T08:45:30;24.58;;;16.15;;
52414;SDS011;38340;52.964;6.086;2022-10-23T08:48:18;19.83;;;15.43;;
52414;SDS011;38340;52.964;6.086;2022-10-23T08:51:21;25.25;;;15.90;;
52414;SDS011;38340;52.964;6.086;2022-10-23T08:56:24;22.58;;;15.15;;
52414;SDS011;38340;52.964;6.086;2022-10-23T09:02:03;27.52;;;16.35;;
52414;SDS011;38340;52.964;6.086;2022-10-23T09:04:32;23.30;;;15.45;;
52414;SDS011;38340;52.964;6.086;2022-10-23T09:12:24;20.27;;;12.27;;
52414;SDS011;38340;52.964;6.086;2022-10-23T09:17:42;20.33;;;13.40;;
52414;SDS011;38340;52.964;6.086;2022-10-23T09:22:58;23.27;;;12.85;;
52414;SDS011;38340;52.964;6.086;2022-10-23T09:25:33;20.80;;;12.75;;
52414;SDS011;38340;52.964;6.086;2022-10-23T09:28:01;16.20;;;11.33;;
52414;SDS011;38340;52.964;6.086;2022-10-23T09:32:59;18.27;;;12.13;;
52414;SDS011;38340;52.964;6.086;2022-10-23T09:35:36;16.27;;;10.35;;
52414;SDS011;38340;52.964;6.086;2022-10-23T09:38:02;18.33;;;11.50;;
52414;SDS011;38340;52.964;6.086;2022-10-23T09:40:31;15.95;;;10.30;;
52414;SDS011;38340;52.964;6.086;2022-10-23T09:43:13;15.25;;;11.38;;
52414;SDS011;38340;52.964;6.086;2022-10-23T09:45:41;16.70;;;10.68;;
52414;SDS011;38340;52.964;6.086;2022-10-23T09:50:41;14.63;;;10.35;;
52414;SDS011;38340;52.964;6.086;2022-10-23T09:53:29;14.75;;;9.55;;
52414;SDS011;38340;52.964;6.086;2022-10-23T09:55:59;14.40;;;9.70;;
52414;SDS011;38340;52.964;6.086;2022-10-23T09:58:37;14.63;;;9.43;;
52414;SDS011;38340;52.964;6.086;2022-10-23T10:01:20;13.68;;;8.77;;
52414;SDS011;38340;52.964;6.086;2022-10-23T10:03:49;17.15;;;9.85;;
52414;SDS011;38340;52.964;6.086;2022-10-23T10:06:29;13.65;;;9.00;;
52414;SDS011;38340;52.964;6.086;2022-10-23T10:08:58;17.80;;;10.02;;
52414;SDS011;38340;52.964;6.086;2022-10-23T10:17:04;13.48;;;8.57;;
52414;SDS011;38340;52.964;6.086;2022-10-23T10:24:58;12.63;;;8.45;;
52414;SDS011;38340;52.964;6.086;2022-10-23T10:30:24;14.52;;;8.02;;
52414;SDS011;38340;52.964;6.086;2022-10-23T10:33:17;12.18;;;8.38;;
52414;SDS011;38340;52.964;6.086;2022-10-23T10:35:56;12.52;;;7.45;;
52414;SDS011;38340;52.964;6.086;2022-10-23T10:38:42;14.23;;;7.43;;
52414;SDS011;38340;52.964;6.086;2022-10-23T10:52:15;13.38;;;6.82;;
52414;SDS011;38340;52.964;6.086;2022-10-23T10:54:58;10.95;;;6.38;;
52414;SDS011;38340;52.964;6.086;2022-10-23T11:00:23;11.65;;;6.00;;
52414;SDS011;38340;52.964;6.086;2022-10-23T11:02:56;14.40;;;6.00;;
52414;SDS011;38340;52.964;6.086;2022-10-23T11:05:30;9.80;;;5.28;;
52414;SDS011;38340;52.964;6.086;2022-10-23T11:11:16;7.75;;;5.18;;
52414;SDS011;38340;52.964;6.086;2022-10-23T11:13:48;9.80;;;5.38;;
52414;SDS011;38340;52.964;6.086;2022-10-23T11:16:25;10.88;;;5.85;;
52414;SDS011;38340;52.964;6.086;2022-10-23T11:19:11;10.43;;;5.65;;
52414;SDS011;38340;52.964;6.086;2022-10-23T11:27:41;61.22;;;9.75;;
52414;SDS011;38340;52.964;6.086;2022-10-23T11:30:21;14.38;;;5.90;;
52414;SDS011;38340;52.964;6.086;2022-10-23T11:38:38;7.60;;;5.03;;
52414;SDS011;38340;52.964;6.086;2022-10-23T11:41:14;8.80;;;5.93;;
52414;SDS011;38340;52.964;6.086;2022-10-23T11:43:50;9.35;;;5.60;;
52414;SDS011;38340;52.964;6.086;2022-10-23T11:48:51;12.27;;;6.22;;
52414;SDS011;38340;52.964;6.086;2022-10-23T11:54:04;10.23;;;5.50;;
52414;SDS011;38340;52.964;6.086;2022-10-23T11:56:36;7.63;;;5.45;;
52414;SDS011;38340;52.964;6.086;2022-10-23T12:02:26;6.80;;;5.15;;
52414;SDS011;38340;52.964;6.086;2022-10-23T12:05:55;11.23;;;5.68;;
52414;SDS011;38340;52.964;6.086;2022-10-23T12:07:55;8.80;;;5.93;;
52414;SDS011;38340;52.964;6.086;2022-10-23T12:10:25;10.57;;;6.40;;
52414;SDS011;38340;52.964;6.086;2022-10-23T12:15:53;6.32;;;4.50;;
52414;SDS011;38340;52.964;6.086;2022-10-23T12:18:19;11.20;;;5.20;;
52414;SDS011;38340;52.964;6.086;2022-10-23T12:20:53;11.13;;;5.38;;
52414;SDS011;38340;52.964;6.086;2022-10-23T12:26:13;9.65;;;5.10;;
52414;SDS011;38340;52.964;6.086;2022-10-23T12:36:57;10.15;;;4.40;;
52414;SDS011;38340;52.964;6.086;2022-10-23T12:39:30;7.50;;;4.32;;
52414;SDS011;38340;52.964;6.086;2022-10-23T12:42:00;9.07;;;4.13;;
52414;SDS011;38340;52.964;6.086;2022-10-23T12:44:26;5.57;;;3.85;;
52414;SDS011;38340;52.964;6.086;2022-10-23T12:46:53;6.72;;;4.28;;
52414;SDS011;38340;52.964;6.086;2022-10-23T12:49:25;7.28;;;4.35;;
52414;SDS011;38340;52.964;6.086;2022-10-23T12:51:59;8.93;;;4.30;;
52414;SDS011;38340;52.964;6.086;2022-10-23T12:54:25;5.53;;;3.90;;
52414;SDS011;38340;52.964;6.086;2022-10-23T12:56:52;8.60;;;4.20;;
52414;SDS011;38340;52.964;6.086;2022-10-23T13:02:25;9.35;;;4.20;;
52414;SDS011;38340;52.964;6.086;2022-10-23T13:04:53;8.35;;;4.43;;
52414;SDS011;38340;52.964;6.086;2022-10-23T13:07:23;8.98;;;4.05;;
52414;SDS011;38340;52.964;6.086;2022-10-23T13:09:51;7.30;;;3.92;;
52414;SDS011;38340;52.964;6.086;2022-10-23T13:12:24;8.95;;;4.13;;
52414;SDS011;38340;52.964;6.086;2022-10-23T13:17:37;7.80;;;3.92;;
52414;SDS011;38340;52.964;6.086;2022-10-23T13:20:22;8.15;;;4.13;;
52414;SDS011;38340;52.964;6.086;2022-10-23T13:25:32;8.05;;;3.97;;
52414;SDS011;38340;52.964;6.086;2022-10-23T13:30:43;9.43;;;4.03;;
52414;SDS011;38340;52.964;6.086;2022-10-23T13:35:39;9.90;;;3.80;;
52414;SDS011;38340;52.964;6.086;2022-10-23T13:38:08;5.40;;;3.42;;
52414;SDS011;38340;52.964;6.086;2022-10-23T13:40:34;5.05;;;3.22;;
52414;SDS011;38340;52.964;6.086;2022-10-23T13:43:00;9.82;;;3.42;;
52414;SDS011;38340;52.964;6.086;2022-10-23T13:45:26;5.95;;;3.42;;
52414;SDS011;38340;52.964;6.086;2022-10-23T13:47:52;7.25;;;3.88;;
52414;SDS011;38340;52.964;6.086;2022-10-23T13:50:18;12.82;;;3.80;;
52414;SDS011;38340;52.964;6.086;2022-10-23T13:52:44;6.57;;;3.58;;
52414;SDS011;38340;52.964;6.086;2022-10-23T13:55:23;8.70;;;3.78;;
52414;SDS011;38340;52.964;6.086;2022-10-23T13:57:51;9.40;;;4.35;;
52414;SDS011;38340;52.964;6.086;2022-10-23T14:00:17;6.75;;;4.13;;
52414;SDS011;38340;52.964;6.086;2022-10-23T14:02:43;7.78;;;3.60;;
52414;SDS011;38340;52.964;6.086;2022-10-23T14:05:09;9.07;;;4.00;;
52414;SDS011;38340;52.964;6.086;2022-10-23T14:07:35;5.88;;;3.83;;
52414;SDS011;38340;52.964;6.086;2022-10-23T14:10:00;9.38;;;4.30;;
52414;SDS011;38340;52.964;6.086;2022-10-23T14:12:26;10.38;;;4.07;;
52414;SDS011;38340;52.964;6.086;2022-10-23T14:14:52;7.45;;;3.83;;
52414;SDS011;38340;52.964;6.086;2022-10-23T14:17:18;8.40;;;3.80;;
52414;SDS011;38340;52.964;6.086;2022-10-23T14:19:45;6.07;;;3.60;;
52414;SDS011;38340;52.964;6.086;2022-10-23T14:22:11;8.27;;;4.20;;
52414;SDS011;38340;52.964;6.086;2022-10-23T14:24:37;9.73;;;4.40;;
52414;SDS011;38340;52.964;6.086;2022-10-23T14:27:03;6.38;;;3.60;;
52414;SDS011;38340;52.964;6.086;2022-10-23T14:29:29;8.20;;;4.20;;
52414;SDS011;38340;52.964;6.086;2022-10-23T14:31:55;6.82;;;3.80;;
52414;SDS011;38340;52.964;6.086;2022-10-23T14:34:21;11.10;;;4.30;;
52414;SDS011;38340;52.964;6.086;2022-10-23T14:36:46;7.72;;;3.58;;
52414;SDS011;38340;52.964;6.086;2022-10-23T14:39:12;7.68;;;3.60;;
52414;SDS011;38340;52.964;6.086;2022-10-23T14:41:38;5.72;;;3.47;;
52414;SDS011;38340;52.964;6.086;2022-10-23T14:44:04;8.73;;;4.22;;
52414;SDS011;38340;52.964;6.086;2022-10-23T14:46:30;9.30;;;3.83;;
52414;SDS011;38340;52.964;6.086;2022-10-23T14:48:56;8.35;;;4.00;;
52414;SDS011;38340;52.964;6.086;2022-10-23T14:51:26;6.85;;;3.60;;
52414;SDS011;38340;52.964;6.086;2022-10-23T14:53:54;5.40;;;3.17;;
52414;SDS011;38340;52.964;6.086;2022-10-23T14:56:23;7.90;;;3.47;;
52414;SDS011;38340;52.964;6.086;2022-10-23T14:58:49;6.15;;;3.55;;
52414;SDS011;38340;52.964;6.086;2022-10-23T15:01:15;6.85;;;3.60;;
52414;SDS011;38340;52.964;6.086;2022-10-23T15:03:40;8.43;;;3.80;;
52414;SDS011;38340;52.964;6.086;2022-10-23T15:06:06;9.65;;;3.75;;
52414;SDS011;38340;52.964;6.086;2022-10-23T15:08:32;8.65;;;3.55;;
52414;SDS011;38340;52.964;6.086;2022-10-23T15:10:59;7.38;;;3.50;;
52414;SDS011;38340;52.964;6.086;2022-10-23T15:13:26;6.53;;;3.53;;
52414;SDS011;38340;52.964;6.086;2022-10-23T15:16:04;8.27;;;3.22;;
52414;SDS011;38340;52.964;6.086;2022-10-23T15:18:32;4.80;;;3.28;;
52414;SDS011;38340;52.964;6.086;2022-10-23T15:21:00;6.05;;;3.03;;
52414;SDS011;38340;52.964;6.086;2022-10-23T15:23:26;5.82;;;3.40;;
52414;SDS011;38340;52.964;6.086;2022-10-23T15:25:55;5.53;;;3.30;;
52414;SDS011;38340;52.964;6.086;2022-10-23T15:28:23;6.47;;;3.53;;
52414;SDS011;38340;52.964;6.086;2022-10-23T15:30:49;7.55;;;3.70;;
52414;SDS011;38340;52.964;6.086;2022-10-23T15:33:15;9.68;;;4.18;;
52414;SDS011;38340;52.964;6.086;2022-10-23T15:35:41;7.20;;;3.83;;
52414;SDS011;38340;52.964;6.086;2022-10-23T15:38:06;7.60;;;3.80;;
52414;SDS011;38340;52.964;6.086;2022-10-23T15:40:32;7.40;;;3.05;;
52414;SDS011;38340;52.964;6.086;2022-10-23T15:42:58;8.48;;;3.63;;
52414;SDS011;38340;52.964;6.086;2022-10-23T15:45:23;9.63;;;3.70;;
52414;SDS011;38340;52.964;6.086;2022-10-23T15:47:49;7.22;;;3.35;;
52414;SDS011;38340;52.964;6.086;2022-10-23T15:50:15;7.90;;;3.83;;
52414;SDS011;38340;52.964;6.086;2022-10-23T15:52:41;9.32;;;4.22;;
52414;SDS011;38340;52.964;6.086;2022-10-23T15:55:07;8.52;;;4.05;;
52414;SDS011;38340;52.964;6.086;2022-10-23T15:57:36;9.00;;;3.83;;
52414;SDS011;38340;52.964;6.086;2022-10-23T16:00:06;7.25;;;3.50;;
52414;SDS011;38340;52.964;6.086;2022-10-23T16:02:33;16.67;;;4.35;;
52414;SDS011;38340;52.964;6.086;2022-10-23T16:04:59;6.97;;;3.88;;
52414;SDS011;38340;52.964;6.086;2022-10-23T16:07:25;6.32;;;4.05;;
52414;SDS011;38340;52.964;6.086;2022-10-23T16:09:50;8.98;;;3.60;;
52414;SDS011;38340;52.964;6.086;2022-10-23T16:12:16;6.43;;;3.58;;
52414;SDS011;38340;52.964;6.086;2022-10-23T16:14:42;7.40;;;3.80;;
52414;SDS011;38340;52.964;6.086;2022-10-23T16:17:08;8.60;;;3.53;;
52414;SDS011;38340;52.964;6.086;2022-10-23T16:19:35;7.20;;;3.33;;
52414;SDS011;38340;52.964;6.086;2022-10-23T16:22:01;8.48;;;3.85;;
52414;SDS011;38340;52.964;6.086;2022-10-23T16:24:27;8.95;;;4.10;;
52414;SDS011;38340;52.964;6.086;2022-10-23T16:26:53;9.98;;;4.07;;
52414;SDS011;38340;52.964;6.086;2022-10-23T16:29:21;4.97;;;3.55;;
52414;SDS011;38340;52.964;6.086;2022-10-23T16:31:50;6.05;;;4.28;;
52414;SDS011;38340;52.964;6.086;2022-10-23T16:34:17;10.70;;;5.22;;
52414;SDS011;38340;52.964;6.086;2022-10-23T16:36:42;10.60;;;6.40;;
52414;SDS011;38340;52.964;6.086;2022-10-23T16:39:09;9.13;;;4.55;;
52414;SDS011;38340;52.964;6.086;2022-10-23T16:41:36;10.80;;;4.75;;
52414;SDS011;38340;52.964;6.086;2022-10-23T16:44:01;9.60;;;5.25;;
52414;SDS011;38340;52.964;6.086;2022-10-23T16:46:28;6.95;;;4.50;;